Latest Weather Observations for Outer Harbor (Black Pole)

IDS60801

Issued at 1:33 am CST Friday 26 April 2019 (issued every 10 minutes, with the page automatically refreshed every 10 minutes)

About weather observations | Map of weather stations | Latest weather observations for SA | Other Formats
Station Details ID: 023052 Name: BLACK POLE Lat: -34.73 Lon: 138.47 Height: 6.27 m
Data from the previous 72 hours. | See also: Recent months for locations in South Australia
Date/Time
CST
Temp
°C
App
Temp
°C
Dew
Point
°C
Rel
Hum
%
Delta-T
°C
Wind Press
QNH
hPa
Press
MSL
hPa
Rain since
9am
mm
Dir  Spd
km/h
Gust
km/h
Spd
kts
Gust
kts
26/01:30am - - - - - WSW 30 35 16 19 - - -
26/01:00am - - - - - WSW 32 37 17 20 - - -
26/12:30am - - - - - WSW 30 37 16 20 - - -
26/12:00am - - - - - WSW 35 44 19 24 - - -
 
Date/Time
CST
Temp
°C
App
Temp
°C
Dew
Point
°C
Rel
Hum
%
Delta-T
°C
Wind Press
QNH
hPa
Press
MSL
hPa
Rain since
9am
mm
Dir  Spd
km/h
Gust
km/h
Spd
kts
Gust
kts
25/11:30pm - - - - - WSW 33 39 18 21 - - -
25/11:00pm - - - - - WSW 33 41 18 22 - - -
25/10:30pm - - - - - WSW 28 35 15 19 - - -
25/10:00pm - - - - - WSW 24 30 13 16 - - -
25/09:30pm - - - - - WSW 30 35 16 19 - - -
25/09:00pm - - - - - WSW 30 39 16 21 - - -
25/08:30pm - - - - - WSW 32 37 17 20 - - -
25/08:00pm - - - - - SW 28 33 15 18 - - -
25/07:30pm - - - - - SW 30 35 16 19 - - -
25/07:00pm - - - - - SW 22 26 12 14 - - -
25/06:30pm - - - - - SW 30 35 16 19 - - -
25/06:00pm - - - - - SW 28 35 15 19 - - -
25/05:30pm - - - - - SSW 24 30 13 16 - - -
25/05:00pm - - - - - SW 13 17 7 9 - - -
25/04:30pm - - - - - SW 11 15 6 8 - - -
25/04:00pm - - - - - SW 6 7 3 4 - - -
25/03:30pm - - - - - SW 4 7 2 4 - - -
25/03:00pm - - - - - W 4 6 2 3 - - -
25/02:30pm - - - - - NNW 4 6 2 3 - - -
25/02:00pm - - - - - W 4 4 2 2 - - -
25/01:30pm - - - - - WNW 6 7 3 4 - - -
25/01:00pm - - - - - NW 7 9 4 5 - - -
25/12:30pm - - - - - WNW 11 17 6 9 - - -
25/12:00pm - - - - - NW 13 15 7 8 - - -
25/11:30am - - - - - NW 13 17 7 9 - - -
25/11:00am - - - - - NW 13 15 7 8 - - -
25/10:30am - - - - - NW 7 9 4 5 - - -
25/10:00am - - - - - N 7 9 4 5 - - -
25/09:30am - - - - - N 11 13 6 7 - - -
25/09:00am - - - - - N 13 17 7 9 - - -
25/08:30am - - - - - N 15 17 8 9 - - -
25/08:00am - - - - - NNE 13 15 7 8 - - -
25/07:30am - - - - - N 15 19 8 10 - - -
25/07:00am - - - - - NNE 19 20 10 11 - - -
25/06:30am - - - - - NNE 15 17 8 9 - - -
25/06:00am - - - - - NE 11 15 6 8 - - -
25/05:30am - - - - - NNE 13 15 7 8 - - -
25/05:00am - - - - - NNE 11 13 6 7 - - -
25/04:30am - - - - - NNE 13 15 7 8 - - -
25/04:00am - - - - - NNE 9 11 5 6 - - -
25/03:30am - - - - - N 9 11 5 6 - - -
25/03:00am - - - - - NNE 9 11 5 6 - - -
25/02:30am - - - - - NE 9 11 5 6 - - -
25/02:00am - - - - - NE 9 13 5 7 - - -
25/01:30am - - - - - ESE 9 13 5 7 - - -
25/01:00am - - - - - SE 11 13 6 7 - - -
25/12:30am - - - - - SE 9 13 5 7 - - -
25/12:00am - - - - - SSE 15 17 8 9 - - -
 
Date/Time
CST
Temp
°C
App
Temp
°C
Dew
Point
°C
Rel
Hum
%
Delta-T
°C
Wind Press
QNH
hPa
Press
MSL
hPa
Rain since
9am
mm
Dir  Spd
km/h
Gust
km/h
Spd
kts
Gust
kts
24/11:30pm - - - - - SSE 15 17 8 9 - - -
24/11:00pm - - - - - SSE 17 19 9 10 - - -
24/10:30pm - - - - - SSE 17 19 9 10 - - -
24/10:00pm - - - - - SSE 15 17 8 9 - - -
24/09:30pm - - - - - SE 15 17 8 9 - - -
24/09:00pm - - - - - SSW 19 22 10 12 - - -
24/08:30pm - - - - - SSW 19 22 10 12 - - -
24/08:00pm - - - - - SSW 22 28 12 15 - - -
24/07:30pm - - - - - SSW 24 28 13 15 - - -
24/07:00pm - - - - - SSW 24 28 13 15 - - -
24/06:30pm - - - - - SSW 26 33 14 18 - - -
24/06:00pm - - - - - SSW 30 33 16 18 - - -
24/05:30pm - - - - - SSW 28 32 15 17 - - -
24/05:00pm - - - - - SSW 26 32 14 17 - - -
24/04:30pm - - - - - SSW 28 33 15 18 - - -
24/04:00pm - - - - - SSW 28 32 15 17 - - -
24/03:30pm - - - - - SSW 28 32 15 17 - - -
24/03:00pm - - - - - SSW 28 32 15 17 - - -
24/02:30pm - - - - - SW 30 33 16 18 - - -
24/02:00pm - - - - - SSW 30 35 16 19 - - -
24/01:30pm - - - - - SW 20 26 11 14 - - -
24/01:00pm - - - - - SW 19 22 10 12 - - -
24/12:30pm - - - - - WSW 11 15 6 8 - - -
24/12:00pm - - - - - W 9 13 5 7 - - -
24/11:30am - - - - - WNW 7 9 4 5 - - -
24/11:00am - - - - - WNW 7 9 4 5 - - -
24/10:30am - - - - - W 4 6 2 3 - - -
24/10:00am - - - - - W 4 7 2 4 - - -
24/09:30am - - - - - NNW 4 6 2 3 - - -
24/09:00am - - - - - N 6 7 3 4 - - -
24/08:30am - - - - - N 7 9 4 5 - - -
24/08:00am - - - - - NNE 17 19 9 10 - - -
24/07:30am - - - - - NNE 15 19 8 10 - - -
24/07:00am - - - - - NNE 13 15 7 8 - - -
24/06:30am - - - - - NNE 11 13 6 7 - - -
24/06:00am - - - - - NNE 7 11 4 6 - - -
24/05:30am - - - - - NE 7 7 4 4 - - -
24/05:00am - - - - - ENE 9 13 5 7 - - -
24/04:30am - - - - - ENE 9 11 5 6 - - -
24/04:00am - - - - - ENE 6 7 3 4 - - -
24/03:30am - - - - - NE 6 9 3 5 - - -
24/03:00am - - - - - SE 7 9 4 5 - - -
24/02:30am - - - - - ENE 4 6 2 3 - - -
24/02:00am - - - - - NE 6 9 3 5 - - -
24/01:30am - - - - - ENE 7 9 4 5 - - -
24/01:00am - - - - - ESE 6 11 3 6 - - -
24/12:30am - - - - - ESE 15 19 8 10 - - -
24/12:00am - - - - - E 11 15 6 8 - - -
 
Date/Time
CST
Temp
°C
App
Temp
°C
Dew
Point
°C
Rel
Hum
%
Delta-T
°C
Wind Press
QNH
hPa
Press
MSL
hPa
Rain since
9am
mm
Dir  Spd
km/h
Gust
km/h
Spd
kts
Gust
kts
23/11:30pm - - - - - E 2 4 1 2 - - -
23/11:00pm - - - - - SSE 2 6 1 3 - - -
23/10:30pm - - - - - SSE 4 7 2 4 - - -
23/10:00pm - - - - - SSE 9 11 5 6 - - -
23/09:30pm - - - - - SSE 7 11 4 6 - - -
23/09:00pm - - - - - S 9 13 5 7 - - -
23/08:30pm - - - - - SE 9 13 5 7 - - -
23/08:00pm - - - - - SSE 17 19 9 10 - - -
23/07:30pm - - - - - SSE 19 22 10 12 - - -
23/07:00pm - - - - - SSE 24 28 13 15 - - -
23/06:30pm - - - - - SSE 24 30 13 16 - - -
23/06:00pm - - - - - SSE 26 33 14 18 - - -
23/05:30pm - - - - - SSE 28 33 15 18 - - -
23/05:00pm - - - - - S 33 39 18 21 - - -
23/04:30pm - - - - - S 35 39 19 21 - - -
23/04:00pm - - - - - SSW 30 35 16 19 - - -
23/03:30pm - - - - - SW 30 33 16 18 - - -
23/03:00pm - - - - - SW 24 30 13 16 - - -
23/02:30pm - - - - - SW 22 24 12 13 - - -
23/02:00pm - - - - - SSW 22 26 12 14 - - -
23/01:30pm - - - - - SW 22 26 12 14 - - -
23/01:00pm - - - - - SW 19 22 10 12 - - -
23/12:30pm - - - - - WSW 20 22 11 12 - - -
23/12:00pm - - - - - WSW 17 20 9 11 - - -
23/11:30am - - - - - SW 13 15 7 8 - - -
23/11:00am - - - - - SW 13 17 7 9 - - -
23/10:30am - - - - - WSW 7 11 4 6 - - -
23/10:00am - - - - - WSW 6 9 3 5 - - -
23/09:30am - - - - - NW 2 2 1 1 - - -
23/09:00am - - - - - NNE 4 6 2 3 - - -
23/08:30am - - - - - N 4 6 2 3 - - -
23/08:00am - - - - - NW 2 4 1 2 - - -
23/07:30am - - - - - N 6 9 3 5 - - -
23/07:00am - - - - - NE 7 9 4 5 - - -
23/06:30am - - - - - ENE 6 9 3 5 - - -
23/06:00am - - - - - NE 7 9 4 5 - - -
23/05:30am - - - - - NE 7 9 4 5 - - -
23/05:00am - - - - - ESE 17 20 9 11 - - -
23/04:30am - - - - - E 11 22 6 12 - - -
23/04:00am - - - - - SE 11 15 6 8 - - -
23/03:30am - - - - - SSE 11 13 6 7 - - -
23/03:00am - - - - - SE 7 9 4 5 - - -
23/02:30am - - - - - SE 7 9 4 5 - - -
23/02:00am - - - - - SE 6 9 3 5 - - -

Other formats

Comma delimited format used in spreadsheet applications
http://www.bom.gov.au/fwo/IDS60801/IDS60801.95675.axf

JavaScript Object Notation format (JSON) in row-major order
http://www.bom.gov.au/fwo/IDS60801/IDS60801.95675.json

Data quality

Most of these data are generated automatically and are frequently updated. Quality checks on data are not normally performed. It is possible for incorrect values to appear. Refer to information at About Latest Weather Observations and please check the disclaimer before using these data.